CheckWX is a tool to help pilots better visualize weather data.  It is not intended as a substitute for an official pre-flight weather briefing.

17:10:20 UTC

KMLE METAR
Millard Airport
Omaha, Nebraska, USA
Current

35 mins ago

KMLE 211635Z AUTO 03003KT 10SM -RA SCT006 SCT055 OVC095 21/20 A3000 RMK AO2 P0001 T02130202
Observed
Jul-21 @ 16:35 UTC
Wind
  • 030° at 3 KTS
Visibility
10 SM
Flight Rules
VFR
Conditions
Light Rain
Cloud Levels
  • Scattered at 600' AGL
  • Scattered at 5,500' AGL
  • Overcast at 9,500' AGL
Temperature
21°C / 70°F
Dewpoint
20°C / 68°F
Humidity
94%
Altimeter
30" Hg
Pressure
1015.92 hPa
Current Rain
0.01"
Previous

55 mins ago

KMLE 211615Z AUTO 32006KT 10SM -RA SCT021 SCT065 OVC090 22/21 A3002 RMK AO2 P0001 T02200210
Observed
Jul-21 @ 16:15 UTC
Wind
  • 320° at 6 KTS
Visibility
10 SM
Flight Rules
VFR
Conditions
Light Rain
Cloud Levels
  • Scattered at 2,100' AGL
  • Scattered at 6,500' AGL
  • Overcast at 9,000' AGL
Temperature
22°C / 72°F
Dewpoint
21°C / 70°F
Humidity
94%
Altimeter
30.02" Hg
Pressure
1016.62 hPa
Current Rain
0.01"
Previous

1 hour ago

KMLE 211555Z AUTO 32006KT 7SM VCTSRA SCT008 BKN032 OVC090 22/21 A3004 RMK AO2 P0013 T02180207
Observed
Jul-21 @ 15:55 UTC
Wind
  • 320° at 6 KTS
Visibility
7 SM
Flight Rules
VFR
Conditions
Area Thunderstorm, Area Rain
Cloud Levels
  • Scattered at 800' AGL
  • Broken at 3,200' AGL
  • Overcast at 9,000' AGL
Temperature
22°C / 72°F
Dewpoint
21°C / 70°F
Humidity
94%
Altimeter
30.04" Hg
Pressure
1017.32 hPa
Current Rain
0.13"